sensor_id;sensor_type;location;lat;lon;timestamp;pressure;altitude;pressure_sealevel;temperature;humidity
53619;BME280;39505;53.040;18.488;2023-01-28T20:01:53;102315.78;;;0.11;100.00
53619;BME280;39505;53.040;18.488;2023-01-28T20:02:10;102321.00;;;0.13;100.00
53619;BME280;39505;53.040;18.488;2023-01-28T20:02:23;102321.00;;;0.13;100.00
53619;BME280;39505;53.040;18.488;2023-01-28T20:02:36;102320.13;;;0.14;100.00
53619;BME280;39505;53.040;18.488;2023-01-28T20:02:49;102320.97;;;0.14;100.00
53619;BME280;39505;53.040;18.488;2023-01-28T20:03:04;102319.25;;;0.13;100.00
53619;BME280;39505;53.040;18.488;2023-01-28T20:03:20;102322.69;;;0.17;100.00
53619;BME280;39505;53.040;18.488;2023-01-28T20:03:34;102317.38;;;0.19;100.00
53619;BME280;39505;53.040;18.488;2023-01-28T20:03:49;102318.31;;;0.16;100.00
53619;BME280;39505;53.040;18.488;2023-01-28T20:04:02;102319.16;;;0.20;100.00
53619;BME280;39505;53.040;18.488;2023-01-28T20:04:16;102319.16;;;0.20;100.00
53619;BME280;39505;53.040;18.488;2023-01-28T20:04:29;102317.38;;;0.20;100.00
53619;BME280;39505;53.040;18.488;2023-01-28T20:04:43;102308.59;;;0.20;100.00
53619;BME280;39505;53.040;18.488;2023-01-28T20:05:11;102315.59;;;0.21;100.00
53619;BME280;39505;53.040;18.488;2023-01-28T20:05:24;102315.59;;;0.22;100.00
53619;BME280;39505;53.040;18.488;2023-01-28T20:05:38;102315.59;;;0.21;100.00
53619;BME280;39505;53.040;18.488;2023-01-28T20:05:50;102312.94;;;0.22;100.00
53619;BME280;39505;53.040;18.488;2023-01-28T20:06:05;102315.59;;;0.22;100.00
53619;BME280;39505;53.040;18.488;2023-01-28T20:06:20;102314.66;;;0.23;100.00
53619;BME280;39505;53.040;18.488;2023-01-28T20:06:34;102314.66;;;0.23;100.00
53619;BME280;39505;53.040;18.488;2023-01-28T20:06:48;102308.53;;;0.23;100.00
53619;BME280;39505;53.040;18.488;2023-01-28T20:07:01;102309.41;;;0.23;100.00
53619;BME280;39505;53.040;18.488;2023-01-28T20:07:13;102313.78;;;0.24;100.00
53619;BME280;39505;53.040;18.488;2023-01-28T20:07:26;102304.13;;;0.23;100.00
53619;BME280;39505;53.040;18.488;2023-01-28T20:07:39;102301.47;;;0.25;100.00
53619;BME280;39505;53.040;18.488;2023-01-28T20:07:52;102305.88;;;0.24;100.00
53619;BME280;39505;53.040;18.488;2023-01-28T20:08:05;102308.47;;;0.26;100.00
53619;BME280;39505;53.040;18.488;2023-01-28T20:08:17;102308.47;;;0.26;100.00
53619;BME280;39505;53.040;18.488;2023-01-28T20:08:30;102309.34;;;0.26;100.00
53619;BME280;39505;53.040;18.488;2023-01-28T20:08:43;102305.81;;;0.26;100.00
53619;BME280;39505;53.040;18.488;2023-01-28T20:08:58;102306.72;;;0.25;100.00
53619;BME280;39505;53.040;18.488;2023-01-28T20:09:14;102304.94;;;0.27;100.00
53619;BME280;39505;53.040;18.488;2023-01-28T20:09:27;102302.31;;;0.27;100.00
53619;BME280;39505;53.040;18.488;2023-01-28T20:09:39;102303.19;;;0.26;100.00
53619;BME280;39505;53.040;18.488;2023-01-28T20:09:52;102304.94;;;0.27;100.00
53619;BME280;39505;53.040;18.488;2023-01-28T20:10:05;102311.94;;;0.28;100.00
53619;BME280;39505;53.040;18.488;2023-01-28T20:10:22;102305.81;;;0.27;100.00
53619;BME280;39505;53.040;18.488;2023-01-28T20:10:35;102304.06;;;0.26;100.00
53619;BME280;39505;53.040;18.488;2023-01-28T20:10:47;102305.81;;;0.27;100.00
53619;BME280;39505;53.040;18.488;2023-01-28T20:11:03;102302.31;;;0.27;100.00
53619;BME280;39505;53.040;18.488;2023-01-28T20:11:17;102309.31;;;0.28;100.00
53619;BME280;39505;53.040;18.488;2023-01-28T20:11:30;102308.41;;;0.29;100.00
53619;BME280;39505;53.040;18.488;2023-01-28T20:11:43;102299.66;;;0.27;100.00
53619;BME280;39505;53.040;18.488;2023-01-28T20:11:56;102306.66;;;0.28;100.00
53619;BME280;39505;53.040;18.488;2023-01-28T20:12:09;102299.66;;;0.28;100.00
53619;BME280;39505;53.040;18.488;2023-01-28T20:12:24;102302.31;;;0.27;100.00
53619;BME280;39505;53.040;18.488;2023-01-28T20:12:37;102303.16;;;0.29;100.00
53619;BME280;39505;53.040;18.488;2023-01-28T20:12:50;102306.66;;;0.28;100.00
53619;BME280;39505;53.040;18.488;2023-01-28T20:13:04;102304.94;;;0.27;100.00
53619;BME280;39505;53.040;18.488;2023-01-28T20:13:17;102305.81;;;0.27;100.00
53619;BME280;39505;53.040;18.488;2023-01-28T20:13:30;102301.44;;;0.26;100.00
53619;BME280;39505;53.040;18.488;2023-01-28T20:13:45;102299.66;;;0.27;100.00
53619;BME280;39505;53.040;18.488;2023-01-28T20:13:59;102309.31;;;0.28;100.00
53619;BME280;39505;53.040;18.488;2023-01-28T20:14:12;102303.16;;;0.27;100.00
53619;BME280;39505;53.040;18.488;2023-01-28T20:14:26;102304.03;;;0.28;100.00
53619;BME280;39505;53.040;18.488;2023-01-28T20:14:39;102306.66;;;0.28;100.00
53619;BME280;39505;53.040;18.488;2023-01-28T20:14:52;102310.19;;;0.28;100.00
53619;BME280;39505;53.040;18.488;2023-01-28T20:15:06;102304.06;;;0.26;100.00
53619;BME280;39505;53.040;18.488;2023-01-28T20:15:19;102307.56;;;0.28;100.00
53619;BME280;39505;53.040;18.488;2023-01-28T20:15:32;102309.31;;;0.28;100.00
53619;BME280;39505;53.040;18.488;2023-01-28T20:15:45;102306.66;;;0.28;100.00
53619;BME280;39505;53.040;18.488;2023-01-28T20:15:57;102304.88;;;0.30;100.00
53619;BME280;39505;53.040;18.488;2023-01-28T20:16:13;102316.34;;;0.29;100.00
53619;BME280;39505;53.040;18.488;2023-01-28T20:16:31;102316.34;;;0.29;100.00
53619;BME280;39505;53.040;18.488;2023-01-28T20:16:44;102315.44;;;0.30;100.00
53619;BME280;39505;53.040;18.488;2023-01-28T20:16:58;102313.69;;;0.29;100.00
53619;BME280;39505;53.040;18.488;2023-01-28T20:17:11;102310.16;;;0.30;100.00
53619;BME280;39505;53.040;18.488;2023-01-28T20:17:25;102317.19;;;0.31;100.00
53619;BME280;39505;53.040;18.488;2023-01-28T20:17:39;102315.44;;;0.30;100.00
53619;BME280;39505;53.040;18.488;2023-01-28T20:17:53;102310.16;;;0.30;100.00
53619;BME280;39505;53.040;18.488;2023-01-28T20:18:05;102314.53;;;0.31;100.00
53619;BME280;39505;53.040;18.488;2023-01-28T20:18:18;102317.19;;;0.31;100.00
53619;BME280;39505;53.040;18.488;2023-01-28T20:18:31;102313.63;;;0.32;100.00
53619;BME280;39505;53.040;18.488;2023-01-28T20:18:47;102312.75;;;0.31;100.00
53619;BME280;39505;53.040;18.488;2023-01-28T20:19:02;102316.25;;;0.32;100.00
53619;BME280;39505;53.040;18.488;2023-01-28T20:19:16;102310.09;;;0.33;100.00
53619;BME280;39505;53.040;18.488;2023-01-28T20:19:30;102315.38;;;0.33;100.00
53619;BME280;39505;53.040;18.488;2023-01-28T20:19:46;102313.59;;;0.33;100.00
53619;BME280;39505;53.040;18.488;2023-01-28T20:19:58;102311.84;;;0.32;100.00
53619;BME280;39505;53.040;18.488;2023-01-28T20:20:11;102312.69;;;0.34;100.00
53619;BME280;39505;53.040;18.488;2023-01-28T20:20:24;102318.88;;;0.35;100.00
53619;BME280;39505;53.040;18.488;2023-01-28T20:20:37;102313.59;;;0.35;100.00
53619;BME280;39505;53.040;18.488;2023-01-28T20:20:53;102311.84;;;0.34;100.00
53619;BME280;39505;53.040;18.488;2023-01-28T20:21:06;102306.56;;;0.34;100.00
53619;BME280;39505;53.040;18.488;2023-01-28T20:21:19;102306.56;;;0.34;100.00
53619;BME280;39505;53.040;18.488;2023-01-28T20:21:34;102303.91;;;0.34;100.00
53619;BME280;39505;53.040;18.488;2023-01-28T20:21:49;102306.56;;;0.34;100.00
53619;BME280;39505;53.040;18.488;2023-01-28T20:22:03;102310.94;;;0.35;100.00
53619;BME280;39505;53.040;18.488;2023-01-28T20:22:17;102303.91;;;0.35;100.00
53619;BME280;39505;53.040;18.488;2023-01-28T20:22:29;102297.75;;;0.35;100.00
53619;BME280;39505;53.040;18.488;2023-01-28T20:22:42;102303.91;;;0.35;100.00
53619;BME280;39505;53.040;18.488;2023-01-28T20:22:54;102310.03;;;0.36;100.00
53619;BME280;39505;53.040;18.488;2023-01-28T20:23:07;102303.91;;;0.35;100.00
53619;BME280;39505;53.040;18.488;2023-01-28T20:23:21;102303.91;;;0.35;100.00
53619;BME280;39505;53.040;18.488;2023-01-28T20:23:34;102307.41;;;0.36;100.00
53619;BME280;39505;53.040;18.488;2023-01-28T20:23:48;102307.41;;;0.36;100.00
53619;BME280;39505;53.040;18.488;2023-01-28T20:24:01;102302.16;;;0.34;100.00
53619;BME280;39505;53.040;18.488;2023-01-28T20:24:15;102305.63;;;0.36;100.00
53619;BME280;39505;53.040;18.488;2023-01-28T20:24:28;102303.88;;;0.37;100.00
53619;BME280;39505;53.040;18.488;2023-01-28T20:24:41;102306.53;;;0.37;100.00
53619;BME280;39505;53.040;18.488;2023-01-28T20:24:53;102300.34;;;0.36;100.00
53619;BME280;39505;53.040;18.488;2023-01-28T20:25:09;102307.38;;;0.37;100.00
53619;BME280;39505;53.040;18.488;2023-01-28T20:25:21;102305.59;;;0.38;100.00
53619;BME280;39505;53.040;18.488;2023-01-28T20:25:35;102298.63;;;0.35;100.00
53619;BME280;39505;53.040;18.488;2023-01-28T20:25:51;102307.38;;;0.37;100.00
53619;BME280;39505;53.040;18.488;2023-01-28T20:26:05;102302.09;;;0.37;100.00
53619;BME280;39505;53.040;18.488;2023-01-28T20:26:21;102292.53;;;0.32;100.00
53619;BME280;39505;53.040;18.488;2023-01-28T20:26:35;102303.03;;;0.35;100.00
53619;BME280;39505;53.040;18.488;2023-01-28T20:26:49;102307.41;;;0.34;100.00
53619;BME280;39505;53.040;18.488;2023-01-28T20:27:02;102301.28;;;0.34;100.00
53619;BME280;39505;53.040;18.488;2023-01-28T20:27:14;102303.91;;;0.34;100.00
53619;BME280;39505;53.040;18.488;2023-01-28T20:27:27;102305.69;;;0.33;100.00
53619;BME280;39505;53.040;18.488;2023-01-28T20:27:40;102301.28;;;0.34;100.00
53619;BME280;39505;53.040;18.488;2023-01-28T20:27:53;102301.28;;;0.34;100.00
53619;BME280;39505;53.040;18.488;2023-01-28T20:28:06;102305.69;;;0.33;100.00
53619;BME280;39505;53.040;18.488;2023-01-28T20:28:19;102305.69;;;0.33;100.00
53619;BME280;39505;53.040;18.488;2023-01-28T20:28:32;102308.34;;;0.32;100.00
53619;BME280;39505;53.040;18.488;2023-01-28T20:28:44;102305.69;;;0.35;100.00
53619;BME280;39505;53.040;18.488;2023-01-28T20:28:59;102297.75;;;0.35;100.00
53619;BME280;39505;53.040;18.488;2023-01-28T20:29:14;102303.03;;;0.35;100.00
53619;BME280;39505;53.040;18.488;2023-01-28T20:29:28;102303.03;;;0.35;100.00
53619;BME280;39505;53.040;18.488;2023-01-28T20:29:41;102303.91;;;0.35;100.00
53619;BME280;39505;53.040;18.488;2023-01-28T20:29:53;102299.50;;;0.34;100.00
53619;BME280;39505;53.040;18.488;2023-01-28T20:30:08;102302.16;;;0.34;100.00
53619;BME280;39505;53.040;18.488;2023-01-28T20:30:21;102293.38;;;0.34;100.00
53619;BME280;39505;53.040;18.488;2023-01-28T20:30:37;102301.28;;;0.34;100.00
53619;BME280;39505;53.040;18.488;2023-01-28T20:30:51;102303.03;;;0.35;100.00
53619;BME280;39505;53.040;18.488;2023-01-28T20:31:04;102306.56;;;0.34;100.00
53619;BME280;39505;53.040;18.488;2023-01-28T20:31:19;102295.13;;;0.33;100.00
53619;BME280;39505;53.040;18.488;2023-01-28T20:31:32;102303.91;;;0.34;100.00
53619;BME280;39505;53.040;18.488;2023-01-28T20:31:45;102300.41;;;0.33;100.00
53619;BME280;39505;53.040;18.488;2023-01-28T20:32:18;102293.38;;;0.34;100.00
53619;BME280;39505;53.040;18.488;2023-01-28T20:32:34;102294.31;;;0.31;100.00
53619;BME280;39505;53.040;18.488;2023-01-28T20:32:47;102295.97;;;0.35;100.00
53619;BME280;39505;53.040;18.488;2023-01-28T20:32:59;102298.63;;;0.35;100.00
53619;BME280;39505;53.040;18.488;2023-01-28T20:33:12;102295.06;;;0.36;100.00
53619;BME280;39505;53.040;18.488;2023-01-28T20:33:26;102295.97;;;0.37;100.00
53619;BME280;39505;53.040;18.488;2023-01-28T20:33:38;102302.13;;;0.36;100.00
53619;BME280;39505;53.040;18.488;2023-01-28T20:33:51;102289.78;;;0.36;100.00
53619;BME280;39505;53.040;18.488;2023-01-28T20:34:04;102298.59;;;0.37;100.00
53619;BME280;39505;53.040;18.488;2023-01-28T20:34:18;102295.06;;;0.36;100.00
53619;BME280;39505;53.040;18.488;2023-01-28T20:34:33;102290.69;;;0.37;100.00
53619;BME280;39505;53.040;18.488;2023-01-28T20:34:45;102292.47;;;0.35;100.00
53619;BME280;39505;53.040;18.488;2023-01-28T20:34:58;102295.97;;;0.37;100.00
53619;BME280;39505;53.040;18.488;2023-01-28T20:35:11;102294.13;;;0.39;100.00
53619;BME280;39505;53.040;18.488;2023-01-28T20:35:23;102295.97;;;0.37;100.00
53619;BME280;39505;53.040;18.488;2023-01-28T20:35:36;102300.31;;;0.38;100.00
53619;BME280;39505;53.040;18.488;2023-01-28T20:35:48;102296.81;;;0.37;100.00
53619;BME280;39505;53.040;18.488;2023-01-28T20:36:04;102288.94;;;0.36;100.00
53619;BME280;39505;53.040;18.488;2023-01-28T20:36:17;102301.25;;;0.37;100.00
53619;BME280;39505;53.040;18.488;2023-01-28T20:36:30;102292.41;;;0.38;100.00
53619;BME280;39505;53.040;18.488;2023-01-28T20:36:43;102289.78;;;0.36;100.00
53619;BME280;39505;53.040;18.488;2023-01-28T20:36:57;102297.69;;;0.38;100.00
53619;BME280;39505;53.040;18.488;2023-01-28T20:37:10;102290.69;;;0.37;100.00
53619;BME280;39505;53.040;18.488;2023-01-28T20:37:22;102288.94;;;0.36;100.00
53619;BME280;39505;53.040;18.488;2023-01-28T20:37:35;102292.44;;;0.36;100.00
53619;BME280;39505;53.040;18.488;2023-01-28T20:37:49;102293.34;;;0.35;100.00
53619;BME280;39505;53.040;18.488;2023-01-28T20:38:02;102286.31;;;0.34;100.00
53619;BME280;39505;53.040;18.488;2023-01-28T20:38:15;102285.44;;;0.34;100.00
53619;BME280;39505;53.040;18.488;2023-01-28T20:38:28;102286.31;;;0.34;100.00
53619;BME280;39505;53.040;18.488;2023-01-28T20:38:42;102287.22;;;0.33;100.00
53619;BME280;39505;53.040;18.488;2023-01-28T20:38:55;102291.59;;;0.34;100.00
53619;BME280;39505;53.040;18.488;2023-01-28T20:39:08;102292.47;;;0.35;100.00
53619;BME280;39505;53.040;18.488;2023-01-28T20:39:22;102288.09;;;0.34;100.00
53619;BME280;39505;53.040;18.488;2023-01-28T20:39:35;102291.59;;;0.34;100.00
53619;BME280;39505;53.040;18.488;2023-01-28T20:39:47;102288.94;;;0.34;100.00
53619;BME280;39505;53.040;18.488;2023-01-28T20:40:00;102287.22;;;0.35;100.00
53619;BME280;39505;53.040;18.488;2023-01-28T20:40:13;102288.06;;;0.35;100.00
53619;BME280;39505;53.040;18.488;2023-01-28T20:40:26;102285.44;;;0.34;100.00
53619;BME280;39505;53.040;18.488;2023-01-28T20:40:40;102291.59;;;0.34;100.00
53619;BME280;39505;53.040;18.488;2023-01-28T20:40:53;102284.56;;;0.35;100.00
53619;BME280;39505;53.040;18.488;2023-01-28T20:41:07;102289.84;;;0.35;100.00
53619;BME280;39505;53.040;18.488;2023-01-28T20:41:21;102281.03;;;0.34;100.00
53619;BME280;39505;53.040;18.488;2023-01-28T20:41:34;102286.28;;;0.36;100.00
53619;BME280;39505;53.040;18.488;2023-01-28T20:41:48;102278.38;;;0.36;100.00
53619;BME280;39505;53.040;18.488;2023-01-28T20:42:01;102283.69;;;0.34;100.00
53619;BME280;39505;53.040;18.488;2023-01-28T20:42:14;102281.94;;;0.35;100.00
53619;BME280;39505;53.040;18.488;2023-01-28T20:42:27;102273.09;;;0.36;100.00
53619;BME280;39505;53.040;18.488;2023-01-28T20:42:39;102288.06;;;0.35;100.00
53619;BME280;39505;53.040;18.488;2023-01-28T20:42:52;102283.66;;;0.36;100.00
53619;BME280;39505;53.040;18.488;2023-01-28T20:43:06;102269.63;;;0.34;100.00
53619;BME280;39505;53.040;18.488;2023-01-28T20:43:18;102274.88;;;0.35;100.00
53619;BME280;39505;53.040;18.488;2023-01-28T20:43:32;102276.66;;;0.35;100.00
53619;BME280;39505;53.040;18.488;2023-01-28T20:43:45;102281.03;;;0.34;100.00
53619;BME280;39505;53.040;18.488;2023-01-28T20:43:58;102274.03;;;0.33;100.00
53619;BME280;39505;53.040;18.488;2023-01-28T20:44:12;102272.25;;;0.35;100.00
53619;BME280;39505;53.040;18.488;2023-01-28T20:44:25;102275.75;;;0.36;100.00
53619;BME280;39505;53.040;18.488;2023-01-28T20:44:43;102269.59;;;0.37;100.00
53619;BME280;39505;53.040;18.488;2023-01-28T20:44:55;102274.00;;;0.35;100.00
53619;BME280;39505;53.040;18.488;2023-01-28T20:45:08;102273.97;;;0.36;100.00
53619;BME280;39505;53.040;18.488;2023-01-28T20:45:22;102280.13;;;0.37;100.00
53619;BME280;39505;53.040;18.488;2023-01-28T20:45:35;102274.91;;;0.34;100.00
53619;BME280;39505;53.040;18.488;2023-01-28T20:45:47;102279.25;;;0.36;100.00
53619;BME280;39505;53.040;18.488;2023-01-28T20:46:02;102273.09;;;0.36;100.00
53619;BME280;39505;53.040;18.488;2023-01-28T20:46:17;102266.06;;;0.36;100.00
53619;BME280;39505;53.040;18.488;2023-01-28T20:46:32;102277.50;;;0.37;100.00
53619;BME280;39505;53.040;18.488;2023-01-28T20:46:47;102269.59;;;0.37;100.00
53619;BME280;39505;53.040;18.488;2023-01-28T20:47:00;102271.28;;;0.40;100.00
53619;BME280;39505;53.040;18.488;2023-01-28T20:47:13;102270.44;;;0.37;100.00
53619;BME280;39505;53.040;18.488;2023-01-28T20:47:27;102281.00;;;0.37;100.00
53619;BME280;39505;53.040;18.488;2023-01-28T20:47:41;102273.09;;;0.37;100.00
53619;BME280;39505;53.040;18.488;2023-01-28T20:47:54;102271.31;;;0.38;100.00
53619;BME280;39505;53.040;18.488;2023-01-28T20:48:06;102275.72;;;0.37;100.00
53619;BME280;39505;53.040;18.488;2023-01-28T20:48:19;102277.50;;;0.37;100.00
53619;BME280;39505;53.040;18.488;2023-01-28T20:48:32;102275.72;;;0.37;100.00
53619;BME280;39505;53.040;18.488;2023-01-28T20:48:46;102275.72;;;0.37;100.00
53619;BME280;39505;53.040;18.488;2023-01-28T20:48:59;102280.94;;;0.39;100.00
53619;BME280;39505;53.040;18.488;2023-01-28T20:49:14;102277.50;;;0.37;100.00
53619;BME280;39505;53.040;18.488;2023-01-28T20:49:27;102279.22;;;0.38;100.00
53619;BME280;39505;53.040;18.488;2023-01-28T20:49:40;102268.66;;;0.38;100.00
53619;BME280;39505;53.040;18.488;2023-01-28T20:49:53;102276.56;;;0.40;100.00
53619;BME280;39505;53.040;18.488;2023-01-28T20:50:07;102277.44;;;0.38;100.00
53619;BME280;39505;53.040;18.488;2023-01-28T20:50:20;102280.13;;;0.37;100.00
53619;BME280;39505;53.040;18.488;2023-01-28T20:50:33;102282.72;;;0.38;100.00
53619;BME280;39505;53.040;18.488;2023-01-28T20:50:46;102273.03;;;0.39;100.00
53619;BME280;39505;53.040;18.488;2023-01-28T20:51:04;102278.31;;;0.39;100.00
53619;BME280;39505;53.040;18.488;2023-01-28T20:51:19;102272.16;;;0.38;100.00
53619;BME280;39505;53.040;18.488;2023-01-28T20:51:33;102279.19;;;0.40;100.00
53619;BME280;39505;53.040;18.488;2023-01-28T20:51:47;102280.06;;;0.40;100.00
53619;BME280;39505;53.040;18.488;2023-01-28T20:51:59;102278.25;;;0.42;100.00
53619;BME280;39505;53.040;18.488;2023-01-28T20:52:12;102275.66;;;0.41;100.00
53619;BME280;39505;53.040;18.488;2023-01-28T20:52:26;102282.69;;;0.42;100.00
53619;BME280;39505;53.040;18.488;2023-01-28T20:52:38;102285.31;;;0.42;100.00
53619;BME280;39505;53.040;18.488;2023-01-28T20:52:51;102284.44;;;0.41;100.00
53619;BME280;39505;53.040;18.488;2023-01-28T20:53:04;102281.78;;;0.41;100.00
53619;BME280;39505;53.040;18.488;2023-01-28T20:53:16;102276.50;;;0.41;100.00
53619;BME280;39505;53.040;18.488;2023-01-28T20:53:29;102281.78;;;0.41;100.00
53619;BME280;39505;53.040;18.488;2023-01-28T20:53:44;102278.31;;;0.39;100.00
53619;BME280;39505;53.040;18.488;2023-01-28T20:53:57;102287.06;;;0.41;100.00
53619;BME280;39505;53.040;18.488;2023-01-28T20:54:10;102285.34;;;0.40;100.00
53619;BME280;39505;53.040;18.488;2023-01-28T20:54:25;102286.22;;;0.39;100.00
53619;BME280;39505;53.040;18.488;2023-01-28T20:54:38;102290.63;;;0.40;100.00
53619;BME280;39505;53.040;18.488;2023-01-28T20:54:52;102286.19;;;0.41;100.00
53619;BME280;39505;53.040;18.488;2023-01-28T20:55:05;102280.13;;;0.37;100.00
53619;BME280;39505;53.040;18.488;2023-01-28T20:55:19;102287.13;;;0.40;100.00
53619;BME280;39505;53.040;18.488;2023-01-28T20:55:31;102285.34;;;0.40;100.00
53619;BME280;39505;53.040;18.488;2023-01-28T20:55:54;102286.19;;;0.41;100.00
53619;BME280;39505;53.040;18.488;2023-01-28T20:56:09;102280.06;;;0.40;100.00
53619;BME280;39505;53.040;18.488;2023-01-28T20:56:24;102290.63;;;0.40;100.00
53619;BME280;39505;53.040;18.488;2023-01-28T20:56:37;102291.47;;;0.41;100.00
53619;BME280;39505;53.040;18.488;2023-01-28T20:56:50;102291.47;;;0.41;100.00
53619;BME280;39505;53.040;18.488;2023-01-28T20:57:04;102284.47;;;0.40;100.00
53619;BME280;39505;53.040;18.488;2023-01-28T20:57:19;102289.75;;;0.40;100.00
53619;BME280;39505;53.040;18.488;2023-01-28T20:57:33;102279.19;;;0.40;100.00
53619;BME280;39505;53.040;18.488;2023-01-28T20:57:48;102283.59;;;0.39;100.00
53619;BME280;39505;53.040;18.488;2023-01-28T20:58:03;102286.19;;;0.41;100.00
53619;BME280;39505;53.040;18.488;2023-01-28T20:58:19;102284.50;;;0.38;100.00
53619;BME280;39505;53.040;18.488;2023-01-28T20:58:32;102287.97;;;0.40;100.00
53619;BME280;39505;53.040;18.488;2023-01-28T20:58:47;102292.34;;;0.41;100.00
53619;BME280;39505;53.040;18.488;2023-01-28T20:59:05;102280.06;;;0.40;100.00
53619;BME280;39505;53.040;18.488;2023-01-28T20:59:19;102289.75;;;0.40;100.00
53619;BME280;39505;53.040;18.488;2023-01-28T20:59:34;102290.63;;;0.40;100.00
53619;BME280;39505;53.040;18.488;2023-01-28T20:59:47;102289.75;;;0.40;100.00
53619;BME280;39505;53.040;18.488;2023-01-28T21:00:05;102295.88;;;0.40;100.00
53619;BME280;39505;53.040;18.488;2023-01-28T21:00:21;102283.59;;;0.39;100.00
53619;BME280;39505;53.040;18.488;2023-01-28T21:00:37;102289.69;;;0.41;100.00
53619;BME280;39505;53.040;18.488;2023-01-28T21:00:51;102282.78;;;0.35;100.00
53619;BME280;39505;53.040;18.488;2023-01-28T21:01:06;102294.13;;;0.39;100.00
53619;BME280;39505;53.040;18.488;2023-01-28T21:01:20;102279.25;;;0.36;100.00
53619;BME280;39505;53.040;18.488;2023-01-28T21:01:34;102288.91;;;0.37;100.00
53619;BME280;39505;53.040;18.488;2023-01-28T21:01:48;102289.69;;;0.41;100.00
53619;BME280;39505;53.040;18.488;2023-01-28T21:02:03;102290.63;;;0.40;100.00
53619;BME280;39505;53.040;18.488;2023-01-28T21:02:17;102297.63;;;0.41;100.00
53619;BME280;39505;53.040;18.488;2023-01-28T21:02:31;102290.63;;;0.40;100.00
53619;BME280;39505;53.040;18.488;2023-01-28T21:02:46;102294.97;;;0.41;100.00
53619;BME280;39505;53.040;18.488;2023-01-28T21:03:00;102288.84;;;0.41;100.00
53619;BME280;39505;53.040;18.488;2023-01-28T21:03:14;102291.47;;;0.41;100.00
53619;BME280;39505;53.040;18.488;2023-01-28T21:03:28;102293.22;;;0.42;100.00
53619;BME280;39505;53.040;18.488;2023-01-28T21:03:41;102293.22;;;0.42;100.00
53619;BME280;39505;53.040;18.488;2023-01-28T21:03:54;102300.22;;;0.43;100.00
53619;BME280;39505;53.040;18.488;2023-01-28T21:04:08;102291.47;;;0.42;100.00
53619;BME280;39505;53.040;18.488;2023-01-28T21:04:22;102295.81;;;0.43;100.00
53619;BME280;39505;53.040;18.488;2023-01-28T21:04:34;102288.81;;;0.42;100.00
53619;BME280;39505;53.040;18.488;2023-01-28T21:04:47;102292.31;;;0.43;100.00
53619;BME280;39505;53.040;18.488;2023-01-28T21:05:00;102294.09;;;0.42;100.00
53619;BME280;39505;53.040;18.488;2023-01-28T21:05:13;102284.41;;;0.43;100.00
53619;BME280;39505;53.040;18.488;2023-01-28T21:05:29;102289.69;;;0.43;100.00
53619;BME280;39505;53.040;18.488;2023-01-28T21:05:43;102292.31;;;0.44;100.00
53619;BME280;39505;53.040;18.488;2023-01-28T21:05:57;102283.47;;;0.45;100.00
53619;BME280;39505;53.040;18.488;2023-01-28T21:06:12;102296.63;;;0.47;100.00
53619;BME280;39505;53.040;18.488;2023-01-28T21:06:25;102301.06;;;0.46;100.00
53619;BME280;39505;53.040;18.488;2023-01-28T21:06:40;102287.88;;;0.46;100.00
53619;BME280;39505;53.040;18.488;2023-01-28T21:06:56;102299.28;;;0.45;100.00
53619;BME280;39505;53.040;18.488;2023-01-28T21:07:09;102294.03;;;0.45;100.00
53619;BME280;39505;53.040;18.488;2023-01-28T21:07:25;102293.13;;;0.46;100.00
53619;BME280;39505;53.040;18.488;2023-01-28T21:07:38;102286.09;;;0.45;100.00
53619;BME280;39505;53.040;18.488;2023-01-28T21:07:51;102295.78;;;0.46;100.00
53619;BME280;39505;53.040;18.488;2023-01-28T21:08:05;102291.38;;;0.45;100.00
53619;BME280;39505;53.040;18.488;2023-01-28T21:08:19;102294.03;;;0.45;100.00
53619;BME280;39505;53.040;18.488;2023-01-28T21:08:33;102289.66;;;0.44;100.00
53619;BME280;39505;53.040;18.488;2023-01-28T21:08:45;102292.31;;;0.44;100.00
53619;BME280;39505;53.040;18.488;2023-01-28T21:08:59;102290.53;;;0.43;100.00
53619;BME280;39505;53.040;18.488;2023-01-28T21:09:13;102284.41;;;0.43;100.00
53619;BME280;39505;53.040;18.488;2023-01-28T21:09:26;102285.25;;;0.43;100.00
53619;BME280;39505;53.040;18.488;2023-01-28T21:09:39;102289.69;;;0.43;100.00
53619;BME280;39505;53.040;18.488;2023-01-28T21:09:52;102287.97;;;0.42;100.00
53619;BME280;39505;53.040;18.488;2023-01-28T21:10:06;102284.44;;;0.41;100.00
53619;BME280;39505;53.040;18.488;2023-01-28T21:10:20;102296.72;;;0.42;100.00
53619;BME280;39505;53.040;18.488;2023-01-28T21:10:34;102289.69;;;0.43;100.00
53619;BME280;39505;53.040;18.488;2023-01-28T21:10:48;102298.47;;;0.43;100.00
53619;BME280;39505;53.040;18.488;2023-01-28T21:11:01;102287.03;;;0.44;100.00
53619;BME280;39505;53.040;18.488;2023-01-28T21:11:14;102290.53;;;0.43;100.00
53619;BME280;39505;53.040;18.488;2023-01-28T21:11:27;102295.81;;;0.43;100.00
53619;BME280;39505;53.040;18.488;2023-01-28T21:11:41;102301.09;;;0.43;100.00
53619;BME280;39505;53.040;18.488;2023-01-28T21:11:53;102301.09;;;0.43;100.00
53619;BME280;39505;53.040;18.488;2023-01-28T21:12:06;102296.72;;;0.42;100.00
53619;BME280;39505;53.040;18.488;2023-01-28T21:12:19;102301.09;;;0.43;100.00
53619;BME280;39505;53.040;18.488;2023-01-28T21:12:32;102284.50;;;0.38;100.00
53619;BME280;39505;53.040;18.488;2023-01-28T21:12:47;102294.09;;;0.42;100.00
53619;BME280;39505;53.040;18.488;2023-01-28T21:13:08;102293.19;;;0.43;100.00